Back to Top

Language: 

My Weather Underground Personal Weather Station Historical Data with Graphs...

Delerius Weather Station Historical Data
Daily Summary for February 20, 2017 Units:  Both    English   Metric
« Previous Day
Next Day »
Daily Weekly Monthly Yearly Custom
  High: Low: Average:
Temperature: 57.5 °F /  14.2 °C 47.6 °F /  8.7 °C 52.9 °F /  11.6 °C
Dew Point: 52.9 °F /  11.6 °C 43.3 °F /  6.3 °C 49.7 °F /  9.8 °C
Humidity: 94 % 82 % 89 %
Wind Speed: 26.0 mph /  41.8 km/h - 11.8 mph /  19 km/h
Wind Gust: 33.0 mph /  53.1 km/h - -
Wind:- - West
Pressure: 30.02 in /  1016.5 hPa 29.89 in /  1012.1 hPa -
Precipitation: 0.00 in /  0 mm    
Historical Graphs
 
 
Tabular Data for February 20, 2017
Time Temperature Dew Point Pressure Wind Wind Speed Wind Gust Humidity Rainfall Rate (Hourly) solar Conditions
00:00 52.0 °F /  11.1 °C 49.5 °F /  9.7 °C 30.02 in /  1016.5 hPa West 5.0 mph /  8 km/h 5.0 mph /  8 km/h 91 % 0.00 in /  0 mm 0 W/m2
00:05 52.0 °F /  11.1 °C 49.5 °F /  9.7 °C 30.02 in /  1016.5 hPa WNW 4.0 mph /  6.4 km/h 9.0 mph /  14.5 km/h 91 % 0.00 in /  0 mm 0 W/m2
00:15 52.4 °F /  11.3 °C 49.8 °F /  9.9 °C 30.01 in /  1016.1 hPa West 6.0 mph /  9.7 km/h 9.0 mph /  14.5 km/h 91 % 0.00 in /  0 mm 0 W/m2
00:25 52.5 °F /  11.4 °C 49.9 °F /  9.9 °C 30.01 in /  1016.1 hPa WSW 5.0 mph /  8 km/h 6.0 mph /  9.7 km/h 91 % 0.00 in /  0 mm 0 W/m2
00:30 52.6 °F /  11.4 °C 50.0 °F /  10 °C 30.01 in /  1016.1 hPa West 4.0 mph /  6.4 km/h 4.0 mph /  6.4 km/h 91 % 0.00 in /  0 mm 0 W/m2
00:35 52.7 °F /  11.5 °C 50.1 °F /  10.1 °C 30.01 in /  1016.1 hPa WSW 4.0 mph /  6.4 km/h 7.0 mph /  11.3 km/h 91 % 0.00 in /  0 mm 0 W/m2
00:40 52.9 °F /  11.6 °C 50.3 °F /  10.2 °C 30.01 in /  1016.1 hPa WSW 5.0 mph /  8 km/h 7.0 mph /  11.3 km/h 91 % 0.00 in /  0 mm 0 W/m2
00:45 53.1 °F /  11.7 °C 50.5 °F /  10.3 °C 30.01 in /  1016.1 hPa North 6.0 mph /  9.7 km/h 12.0 mph /  19.3 km/h 91 % 0.00 in /  0 mm 0 W/m2
00:50 53.3 °F /  11.8 °C 50.7 °F /  10.4 °C 30.01 in /  1016.1 hPa WNW 9.0 mph /  14.5 km/h 9.0 mph /  14.5 km/h 91 % 0.00 in /  0 mm 0 W/m2
00:55 53.4 °F /  11.9 °C 50.5 °F /  10.3 °C 30.01 in /  1016.1 hPa West 12.0 mph /  19.3 km/h 19.0 mph /  30.6 km/h 90 % 0.00 in /  0 mm 0 W/m2
01:00 53.4 °F /  11.9 °C 50.5 °F /  10.3 °C 30.01 in /  1016.1 hPa West 12.0 mph /  19.3 km/h 12.0 mph /  19.3 km/h 90 % 0.00 in /  0 mm 0 W/m2
01:10 53.3 °F /  11.8 °C 50.4 °F /  10.2 °C 30.01 in /  1016.1 hPa WNW 14.0 mph /  22.5 km/h 14.0 mph /  22.5 km/h 90 % 0.00 in /  0 mm 0 W/m2
01:15 53.3 °F /  11.8 °C 50.4 °F /  10.2 °C 30.01 in /  1016.1 hPa West 14.0 mph /  22.5 km/h 14.0 mph /  22.5 km/h 90 % 0.00 in /  0 mm 0 W/m2
01:20 53.3 °F /  11.8 °C 50.4 °F /  10.2 °C 30.01 in /  1016.1 hPa West 13.0 mph /  20.9 km/h 13.0 mph /  20.9 km/h 90 % 0.00 in /  0 mm 0 W/m2
01:30 53.3 °F /  11.8 °C 50.7 °F /  10.4 °C 30.01 in /  1016.1 hPa West 15.0 mph /  24.1 km/h 20.0 mph /  32.2 km/h 91 % 0.00 in /  0 mm 0 W/m2
01:35 53.3 °F /  11.8 °C 50.7 °F /  10.4 °C 30.00 in /  1015.8 hPa West 16.0 mph /  25.7 km/h 20.0 mph /  32.2 km/h 91 % 0.00 in /  0 mm 0 W/m2
01:40 53.2 °F /  11.8 °C 50.6 °F /  10.3 °C 30.01 in /  1016.1 hPa West 15.0 mph /  24.1 km/h 15.0 mph /  24.1 km/h 91 % 0.00 in /  0 mm 0 W/m2
01:45 53.1 °F /  11.7 °C 50.5 °F /  10.3 °C 30.01 in /  1016.1 hPa West 12.0 mph /  19.3 km/h 15.0 mph /  24.1 km/h 91 % 0.00 in /  0 mm 0 W/m2
01:55 53.0 °F /  11.7 °C 50.4 °F /  10.2 °C 30.01 in /  1016.1 hPa West 10.0 mph /  16.1 km/h 11.0 mph /  17.7 km/h 91 % 0.00 in /  0 mm 0 W/m2
02:00 53.0 °F /  11.7 °C 50.4 °F /  10.2 °C 30.01 in /  1016.1 hPa West 11.0 mph /  17.7 km/h 11.0 mph /  17.7 km/h 91 % 0.00 in /  0 mm 0 W/m2
02:05 53.0 °F /  11.7 °C 50.4 °F /  10.2 °C 30.01 in /  1016.1 hPa WSW 11.0 mph /  17.7 km/h 11.0 mph /  17.7 km/h 91 % 0.00 in /  0 mm 0 W/m2
02:10 53.0 °F /  11.7 °C 50.4 °F /  10.2 °C 30.01 in /  1016.1 hPa WSW 9.0 mph /  14.5 km/h 9.0 mph /  14.5 km/h 91 % 0.00 in /  0 mm 0 W/m2
02:15 52.9 °F /  11.6 °C 50.3 °F /  10.2 °C 30.01 in /  1016.1 hPa WSW 8.0 mph /  12.9 km/h 11.0 mph /  17.7 km/h 91 % 0.00 in /  0 mm 0 W/m2
02:20 52.8 °F /  11.6 °C 50.2 °F /  10.1 °C 30.01 in /  1016.1 hPa WNW 8.0 mph /  12.9 km/h 8.0 mph /  12.9 km/h 91 % 0.00 in /  0 mm 0 W/m2
02:25 52.7 °F /  11.5 °C 50.1 °F /  10.1 °C 30.01 in /  1016.1 hPa West 6.0 mph /  9.7 km/h 11.0 mph /  17.7 km/h 91 % 0.00 in /  0 mm 0 W/m2
02:35 52.5 °F /  11.4 °C 49.9 °F /  9.9 °C 30.01 in /  1016.1 hPa WNW 5.0 mph /  8 km/h 11.0 mph /  17.7 km/h 91 % 0.00 in /  0 mm 0 W/m2
02:45 52.4 °F /  11.3 °C 50.1 °F /  10.1 °C 30.00 in /  1015.8 hPa WSW 3.0 mph /  4.8 km/h 11.0 mph /  17.7 km/h 92 % 0.00 in /  0 mm 0 W/m2
02:50 52.4 °F /  11.3 °C 50.1 °F /  10.1 °C 30.00 in /  1015.8 hPa WSW 2.0 mph /  3.2 km/h 2.0 mph /  3.2 km/h 92 % 0.00 in /  0 mm 0 W/m2
02:55 52.4 °F /  11.3 °C 50.1 °F /  10.1 °C 30.00 in /  1015.8 hPa WNW 2.0 mph /  3.2 km/h 11.0 mph /  17.7 km/h 92 % 0.00 in /  0 mm 0 W/m2
03:00 52.4 °F /  11.3 °C 50.1 °F /  10.1 °C 30.00 in /  1015.8 hPa West 2.0 mph /  3.2 km/h 11.0 mph /  17.7 km/h 92 % 0.00 in /  0 mm 0 W/m2
03:05 52.4 °F /  11.3 °C 50.1 °F /  10.1 °C 29.99 in /  1015.5 hPa West 2.0 mph /  3.2 km/h 11.0 mph /  17.7 km/h 92 % 0.00 in /  0 mm 0 W/m2
03:10 52.5 °F /  11.4 °C 50.2 °F /  10.1 °C 29.99 in /  1015.5 hPa WNW 3.0 mph /  4.8 km/h 3.0 mph /  4.8 km/h 92 % 0.00 in /  0 mm 0 W/m2
03:20 52.5 °F /  11.4 °C 50.2 °F /  10.1 °C 29.99 in /  1015.5 hPa West 3.0 mph /  4.8 km/h 11.0 mph /  17.7 km/h 92 % 0.00 in /  0 mm 0 W/m2
03:25 52.5 °F /  11.4 °C 50.2 °F /  10.1 °C 29.99 in /  1015.5 hPa West 5.0 mph /  8 km/h 19.0 mph /  30.6 km/h 92 % 0.00 in /  0 mm 0 W/m2
03:30 52.6 °F /  11.4 °C 50.3 °F /  10.2 °C 29.99 in /  1015.5 hPa NW 9.0 mph /  14.5 km/h 11.0 mph /  17.7 km/h 92 % 0.00 in /  0 mm 0 W/m2
03:35 52.6 °F /  11.4 °C 50.3 °F /  10.2 °C 29.99 in /  1015.5 hPa West 11.0 mph /  17.7 km/h 11.0 mph /  17.7 km/h 92 % 0.00 in /  0 mm 0 W/m2
03:40 52.6 °F /  11.4 °C 50.3 °F /  10.2 °C 29.99 in /  1015.5 hPa West 11.0 mph /  17.7 km/h 11.0 mph /  17.7 km/h 92 % 0.00 in /  0 mm 0 W/m2
03:45 52.5 °F /  11.4 °C 50.2 °F /  10.1 °C 29.99 in /  1015.5 hPa West 9.0 mph /  14.5 km/h 11.0 mph /  17.7 km/h 92 % 0.00 in /  0 mm 0 W/m2
03:50 52.4 °F /  11.3 °C 50.4 °F /  10.2 °C 29.99 in /  1015.5 hPa West 10.0 mph /  16.1 km/h 19.0 mph /  30.6 km/h 93 % 0.00 in /  0 mm 0 W/m2
04:00 52.2 °F /  11.2 °C 50.5 °F /  10.3 °C 29.98 in /  1015.1 hPa WSW 14.0 mph /  22.5 km/h 23.0 mph /  37 km/h 94 % 0.00 in /  0 mm 0 W/m2
04:05 52.1 °F /  11.2 °C 50.4 °F /  10.2 °C 29.97 in /  1014.8 hPa West 16.0 mph /  25.7 km/h 23.0 mph /  37 km/h 94 % 0.00 in /  0 mm 0 W/m2
04:10 52.1 °F /  11.2 °C 50.4 °F /  10.2 °C 29.97 in /  1014.8 hPa West 18.0 mph /  29 km/h 18.0 mph /  29 km/h 94 % 0.00 in /  0 mm 0 W/m2
04:15 52.1 °F /  11.2 °C 50.4 °F /  10.2 °C 29.98 in /  1015.1 hPa West 17.0 mph /  27.4 km/h 18.0 mph /  29 km/h 94 % 0.00 in /  0 mm 0 W/m2
04:25 52.2 °F /  11.2 °C 50.5 °F /  10.3 °C 29.98 in /  1015.1 hPa NW 17.0 mph /  27.4 km/h 24.0 mph /  38.6 km/h 94 % 0.00 in /  0 mm 0 W/m2
04:30 52.1 °F /  11.2 °C 50.4 °F /  10.2 °C 29.97 in /  1014.8 hPa West 16.0 mph /  25.7 km/h 22.0 mph /  35.4 km/h 94 % 0.00 in /  0 mm 0 W/m2
04:40 52.0 °F /  11.1 °C 50.3 °F /  10.2 °C 29.97 in /  1014.8 hPa West 18.0 mph /  29 km/h 18.0 mph /  29 km/h 94 % 0.00 in /  0 mm 0 W/m2
04:45 51.9 °F /  11.1 °C 50.2 °F /  10.1 °C 29.97 in /  1014.8 hPa West 18.0 mph /  29 km/h 26.0 mph /  41.8 km/h 94 % 0.00 in /  0 mm 0 W/m2
04:50 52.0 °F /  11.1 °C 50.3 °F /  10.2 °C 29.96 in /  1014.4 hPa WNW 18.0 mph /  29 km/h 24.0 mph /  38.6 km/h 94 % 0.00 in /  0 mm 0 W/m2
04:55 52.1 °F /  11.2 °C 50.1 °F /  10.1 °C 29.96 in /  1014.4 hPa WNW 20.0 mph /  32.2 km/h 24.0 mph /  38.6 km/h 93 % 0.00 in /  0 mm 0 W/m2
05:00 52.3 °F /  11.3 °C 50.3 °F /  10.2 °C 29.97 in /  1014.8 hPa NW 21.0 mph /  33.8 km/h 21.0 mph /  33.8 km/h 93 % 0.00 in /  0 mm 0 W/m2
05:05 52.4 °F /  11.3 °C 50.4 °F /  10.2 °C 29.97 in /  1014.8 hPa WNW 20.0 mph /  32.2 km/h 21.0 mph /  33.8 km/h 93 % 0.00 in /  0 mm 0 W/m2
05:10 52.5 °F /  11.4 °C 50.5 °F /  10.3 °C 29.97 in /  1014.8 hPa West 19.0 mph /  30.6 km/h 19.0 mph /  30.6 km/h 93 % 0.00 in /  0 mm 0 W/m2
05:15 52.5 °F /  11.4 °C 50.5 °F /  10.3 °C 29.97 in /  1014.8 hPa West 18.0 mph /  29 km/h 19.0 mph /  30.6 km/h 93 % 0.00 in /  0 mm 0 W/m2
05:25 52.4 °F /  11.3 °C 50.1 °F /  10.1 °C 29.97 in /  1014.8 hPa NNW 16.0 mph /  25.7 km/h 16.0 mph /  25.7 km/h 92 % 0.00 in /  0 mm 0 W/m2
05:30 52.4 °F /  11.3 °C 50.1 °F /  10.1 °C 29.97 in /  1014.8 hPa West 16.0 mph /  25.7 km/h 18.0 mph /  29 km/h 92 % 0.00 in /  0 mm 0 W/m2
05:35 52.5 °F /  11.4 °C 50.2 °F /  10.1 °C 29.97 in /  1014.8 hPa WNW 15.0 mph /  24.1 km/h 18.0 mph /  29 km/h 92 % 0.00 in /  0 mm 0 W/m2
05:40 52.6 °F /  11.4 °C 50.0 °F /  10 °C 29.97 in /  1014.8 hPa West 14.0 mph /  22.5 km/h 14.0 mph /  22.5 km/h 91 % 0.00 in /  0 mm 0 W/m2
05:45 52.6 °F /  11.4 °C 50.0 °F /  10 °C 29.97 in /  1014.8 hPa West 13.0 mph /  20.9 km/h 18.0 mph /  29 km/h 91 % 0.00 in /  0 mm 0 W/m2
05:50 52.7 °F /  11.5 °C 50.1 °F /  10.1 °C 29.97 in /  1014.8 hPa West 13.0 mph /  20.9 km/h 13.0 mph /  20.9 km/h 91 % 0.00 in /  0 mm 0 W/m2
05:55 52.7 °F /  11.5 °C 50.1 °F /  10.1 °C 29.96 in /  1014.4 hPa WNW 13.0 mph /  20.9 km/h 15.0 mph /  24.1 km/h 91 % 0.00 in /  0 mm 0 W/m2
06:05 52.6 °F /  11.4 °C 50.0 °F /  10 °C 29.96 in /  1014.4 hPa WNW 15.0 mph /  24.1 km/h 18.0 mph /  29 km/h 91 % 0.00 in /  0 mm 0 W/m2
06:10 52.6 °F /  11.4 °C 50.0 °F /  10 °C 29.96 in /  1014.4 hPa WNW 15.0 mph /  24.1 km/h 15.0 mph /  24.1 km/h 91 % 0.00 in /  0 mm 0 W/m2
06:15 52.5 °F /  11.4 °C 49.9 °F /  9.9 °C 29.97 in /  1014.8 hPa WNW 15.0 mph /  24.1 km/h 15.0 mph /  24.1 km/h 91 % 0.00 in /  0 mm 0 W/m2
06:20 52.4 °F /  11.3 °C 49.8 °F /  9.9 °C 29.97 in /  1014.8 hPa NW 15.0 mph /  24.1 km/h 20.0 mph /  32.2 km/h 91 % 0.00 in /  0 mm 0 W/m2
06:25 52.4 °F /  11.3 °C 49.8 °F /  9.9 °C 29.96 in /  1014.4 hPa West 15.0 mph /  24.1 km/h 20.0 mph /  32.2 km/h 91 % 0.00 in /  0 mm 0 W/m2
06:30 52.2 °F /  11.2 °C 49.9 °F /  9.9 °C 29.97 in /  1014.8 hPa West 13.0 mph /  20.9 km/h 13.0 mph /  20.9 km/h 92 % 0.00 in /  0 mm 0 W/m2
06:40 52.2 °F /  11.2 °C 49.9 °F /  9.9 °C 29.97 in /  1014.8 hPa West 14.0 mph /  22.5 km/h 14.0 mph /  22.5 km/h 92 % 0.00 in /  0 mm 0 W/m2
06:45 52.1 °F /  11.2 °C 49.8 °F /  9.9 °C 29.97 in /  1014.8 hPa WNW 13.0 mph /  20.9 km/h 14.0 mph /  22.5 km/h 92 % 0.00 in /  0 mm 0 W/m2
06:55 52.0 °F /  11.1 °C 49.7 °F /  9.8 °C 29.97 in /  1014.8 hPa West 9.0 mph /  14.5 km/h 11.0 mph /  17.7 km/h 92 % 0.00 in /  0 mm 0 W/m2
07:00 52.0 °F /  11.1 °C 50.0 °F /  10 °C 29.97 in /  1014.8 hPa West 10.0 mph /  16.1 km/h 10.0 mph /  16.1 km/h 93 % 0.00 in /  0 mm 0 W/m2
07:05 51.9 °F /  11.1 °C 49.9 °F /  9.9 °C 29.97 in /  1014.8 hPa West 7.0 mph /  11.3 km/h 11.0 mph /  17.7 km/h 93 % 0.00 in /  0 mm 0 W/m2
07:10 52.0 °F /  11.1 °C 50.0 °F /  10 °C 29.97 in /  1014.8 hPa WSW 6.0 mph /  9.7 km/h 6.0 mph /  9.7 km/h 93 % 0.00 in /  0 mm 0 W/m2
07:15 52.0 °F /  11.1 °C 50.0 °F /  10 °C 29.96 in /  1014.4 hPa WSW 6.0 mph /  9.7 km/h 11.0 mph /  17.7 km/h 93 % 0.00 in /  0 mm 0 W/m2
07:20 52.0 °F /  11.1 °C 50.0 °F /  10 °C 29.96 in /  1014.4 hPa West 5.0 mph /  8 km/h 5.0 mph /  8 km/h 93 % 0.00 in /  0 mm 0 W/m2
07:25 52.1 °F /  11.2 °C 49.8 °F /  9.9 °C 29.96 in /  1014.4 hPa WSW 5.0 mph /  8 km/h 6.0 mph /  9.7 km/h 92 % 0.00 in /  0 mm 0 W/m2
07:35 52.2 °F /  11.2 °C 49.9 °F /  9.9 °C 29.95 in /  1014.1 hPa West 6.0 mph /  9.7 km/h 11.0 mph /  17.7 km/h 92 % 0.00 in /  0 mm 5 W/m2
07:40 52.3 °F /  11.3 °C 50.0 °F /  10 °C 29.95 in /  1014.1 hPa West 6.0 mph /  9.7 km/h 6.0 mph /  9.7 km/h 92 % 0.00 in /  0 mm 9 W/m2
07:45 52.3 °F /  11.3 °C 50.0 °F /  10 °C 29.96 in /  1014.4 hPa WSW 8.0 mph /  12.9 km/h 9.0 mph /  14.5 km/h 92 % 0.00 in /  0 mm 9 W/m2
07:50 52.3 °F /  11.3 °C 50.0 °F /  10 °C 29.96 in /  1014.4 hPa WSW 8.0 mph /  12.9 km/h 8.0 mph /  12.9 km/h 92 % 0.00 in /  0 mm 9 W/m2
07:55 52.2 °F /  11.2 °C 49.9 °F /  9.9 °C 29.96 in /  1014.4 hPa West 7.0 mph /  11.3 km/h 11.0 mph /  17.7 km/h 92 % 0.00 in /  0 mm 12 W/m2
08:00 52.2 °F /  11.2 °C 49.9 °F /  9.9 °C 29.96 in /  1014.4 hPa West 7.0 mph /  11.3 km/h 7.0 mph /  11.3 km/h 92 % 0.00 in /  0 mm 14 W/m2
08:05 52.2 °F /  11.2 °C 49.9 °F /  9.9 °C 29.96 in /  1014.4 hPa WNW 7.0 mph /  11.3 km/h 11.0 mph /  17.7 km/h 92 % 0.00 in /  0 mm 18 W/m2
08:10 52.2 °F /  11.2 °C 49.9 °F /  9.9 °C 29.96 in /  1014.4 hPa WNW 7.0 mph /  11.3 km/h 11.0 mph /  17.7 km/h 92 % 0.00 in /  0 mm 19 W/m2
08:20 52.3 °F /  11.3 °C 50.0 °F /  10 °C 29.96 in /  1014.4 hPa West 10.0 mph /  16.1 km/h 10.0 mph /  16.1 km/h 92 % 0.00 in /  0 mm 19 W/m2
08:25 52.4 °F /  11.3 °C 49.8 °F /  9.9 °C 29.95 in /  1014.1 hPa WSW 11.0 mph /  17.7 km/h 11.0 mph /  17.7 km/h 91 % 0.00 in /  0 mm 21 W/m2
08:30 52.4 °F /  11.3 °C 49.8 °F /  9.9 °C 29.95 in /  1014.1 hPa West 11.0 mph /  17.7 km/h 11.0 mph /  17.7 km/h 91 % 0.00 in /  0 mm 14 W/m2
08:35 52.3 °F /  11.3 °C 49.8 °F /  9.9 °C 29.96 in /  1014.4 hPa WSW 9.0 mph /  14.5 km/h 13.0 mph /  20.9 km/h 91 % 0.00 in /  0 mm 12 W/m2
08:40 52.3 °F /  11.3 °C 49.8 °F /  9.9 °C 29.95 in /  1014.1 hPa WSW 8.0 mph /  12.9 km/h 11.0 mph /  17.7 km/h 91 % 0.00 in /  0 mm 16 W/m2
08:45 52.4 °F /  11.3 °C 49.8 °F /  9.9 °C 29.95 in /  1014.1 hPa West 10.0 mph /  16.1 km/h 11.0 mph /  17.7 km/h 91 % 0.00 in /  0 mm 12 W/m2
08:55 52.4 °F /  11.3 °C 49.8 °F /  9.9 °C 29.94 in /  1013.8 hPa West 9.0 mph /  14.5 km/h 15.0 mph /  24.1 km/h 91 % 0.00 in /  0 mm 25 W/m2
09:05 52.8 °F /  11.6 °C 50.5 °F /  10.3 °C 29.92 in /  1013.1 hPa West 11.0 mph /  17.7 km/h 11.0 mph /  17.7 km/h 92 % 0.00 in /  0 mm 46 W/m2
09:10 53.0 °F /  11.7 °C 50.7 °F /  10.4 °C 29.92 in /  1013.1 hPa West 11.0 mph /  17.7 km/h 16.0 mph /  25.7 km/h 92 % 0.00 in /  0 mm 47 W/m2
09:15 53.3 °F /  11.8 °C 51.0 °F /  10.6 °C 29.92 in /  1013.1 hPa WNW 12.0 mph /  19.3 km/h 30.0 mph /  48.3 km/h 92 % 0.00 in /  0 mm 58 W/m2
09:20 53.5 °F /  11.9 °C 51.2 °F /  10.7 °C 29.92 in /  1013.1 hPa NW 15.0 mph /  24.1 km/h 15.0 mph /  24.1 km/h 92 % 0.00 in /  0 mm 63 W/m2
09:25 53.7 °F /  12.1 °C 51.4 °F /  10.8 °C 29.92 in /  1013.1 hPa WNW 18.0 mph /  29 km/h 18.0 mph /  29 km/h 92 % 0.00 in /  0 mm 65 W/m2
09:35 53.8 °F /  12.1 °C 51.5 °F /  10.8 °C 29.91 in /  1012.8 hPa NW 15.0 mph /  24.1 km/h 22.0 mph /  35.4 km/h 92 % 0.00 in /  0 mm 84 W/m2
09:40 54.0 °F /  12.2 °C 51.7 °F /  10.9 °C 29.90 in /  1012.4 hPa West 16.0 mph /  25.7 km/h 21.0 mph /  33.8 km/h 92 % 0.00 in /  0 mm 88 W/m2
09:45 54.2 °F /  12.3 °C 51.9 °F /  11.1 °C 29.90 in /  1012.4 hPa NW 17.0 mph /  27.4 km/h 21.0 mph /  33.8 km/h 92 % 0.00 in /  0 mm 98 W/m2
09:55 54.8 °F /  12.7 °C 52.2 °F /  11.2 °C 29.89 in /  1012.1 hPa WNW 18.0 mph /  29 km/h 23.0 mph /  37 km/h 91 % 0.00 in /  0 mm 137 W/m2
10:00 55.2 °F /  12.9 °C 52.3 °F /  11.3 °C 29.89 in /  1012.1 hPa WNW 20.0 mph /  32.2 km/h 28.0 mph /  45.1 km/h 90 % 0.00 in /  0 mm 144 W/m2
10:05 55.8 °F /  13.2 °C 52.6 °F /  11.4 °C 29.89 in /  1012.1 hPa West 22.0 mph /  35.4 km/h 28.0 mph /  45.1 km/h 89 % 0.00 in /  0 mm 158 W/m2
10:10 56.2 °F /  13.4 °C 52.4 °F /  11.3 °C 29.89 in /  1012.1 hPa WNW 23.0 mph /  37 km/h 30.0 mph /  48.3 km/h 87 % 0.00 in /  0 mm 171 W/m2
10:15 56.5 °F /  13.6 °C 52.4 °F /  11.3 °C 29.89 in /  1012.1 hPa WSW 24.0 mph /  38.6 km/h 31.0 mph /  49.9 km/h 86 % 0.00 in /  0 mm 148 W/m2
10:20 56.7 °F /  13.7 °C 52.2 °F /  11.2 °C 29.89 in /  1012.1 hPa WNW 24.0 mph /  38.6 km/h 24.0 mph /  38.6 km/h 85 % 0.00 in /  0 mm 137 W/m2
10:25 56.7 °F /  13.7 °C 52.2 °F /  11.2 °C 29.89 in /  1012.1 hPa WNW 22.0 mph /  35.4 km/h 26.0 mph /  41.8 km/h 85 % 0.00 in /  0 mm 114 W/m2
10:30 56.7 °F /  13.7 °C 52.2 °F /  11.2 °C 29.90 in /  1012.4 hPa West 21.0 mph /  33.8 km/h 21.0 mph /  33.8 km/h 85 % 0.00 in /  0 mm 100 W/m2
10:40 57.0 °F /  13.9 °C 52.2 °F /  11.2 °C 29.89 in /  1012.1 hPa West 23.0 mph /  37 km/h 25.0 mph /  40.2 km/h 84 % 0.00 in /  0 mm 100 W/m2
10:45 57.2 °F /  14 °C 52.4 °F /  11.3 °C 29.90 in /  1012.4 hPa West 24.0 mph /  38.6 km/h 29.0 mph /  46.7 km/h 84 % 0.00 in /  0 mm 98 W/m2
10:50 57.3 °F /  14.1 °C 52.5 °F /  11.4 °C 29.89 in /  1012.1 hPa NW 25.0 mph /  40.2 km/h 28.0 mph /  45.1 km/h 84 % 0.00 in /  0 mm 105 W/m2
10:55 57.3 °F /  14.1 °C 52.8 °F /  11.6 °C 29.89 in /  1012.1 hPa WNW 25.0 mph /  40.2 km/h 28.0 mph /  45.1 km/h 85 % 0.00 in /  0 mm 116 W/m2
11:00 57.3 °F /  14.1 °C 52.8 °F /  11.6 °C 29.89 in /  1012.1 hPa West 22.0 mph /  35.4 km/h 24.0 mph /  38.6 km/h 85 % 0.00 in /  0 mm 105 W/m2
11:05 57.3 °F /  14.1 °C 52.5 °F /  11.4 °C 29.89 in /  1012.1 hPa WNW 22.0 mph /  35.4 km/h 28.0 mph /  45.1 km/h 84 % 0.00 in /  0 mm 88 W/m2
11:15 57.4 °F /  14.1 °C 52.3 °F /  11.3 °C 29.89 in /  1012.1 hPa West 26.0 mph /  41.8 km/h 26.0 mph /  41.8 km/h 83 % 0.00 in /  0 mm 76 W/m2
11:20 57.4 °F /  14.1 °C 52.3 °F /  11.3 °C 29.89 in /  1012.1 hPa WNW 25.0 mph /  40.2 km/h 31.0 mph /  49.9 km/h 83 % 0.00 in /  0 mm 67 W/m2
11:25 57.4 °F /  14.1 °C 52.3 °F /  11.3 °C 29.90 in /  1012.4 hPa WNW 25.0 mph /  40.2 km/h 31.0 mph /  49.9 km/h 83 % 0.00 in /  0 mm 70 W/m2
11:30 57.4 °F /  14.1 °C 52.3 °F /  11.3 °C 29.91 in /  1012.8 hPa West 24.0 mph /  38.6 km/h 33.0 mph /  53.1 km/h 83 % 0.00 in /  0 mm 83 W/m2
11:35 57.4 °F /  14.1 °C 51.9 °F /  11.1 °C 29.91 in /  1012.8 hPa WNW 24.0 mph /  38.6 km/h 33.0 mph /  53.1 km/h 82 % 0.00 in /  0 mm 93 W/m2
11:40 57.4 °F /  14.1 °C 51.9 °F /  11.1 °C 29.91 in /  1012.8 hPa WNW 25.0 mph /  40.2 km/h 25.0 mph /  40.2 km/h 82 % 0.00 in /  0 mm 104 W/m2
11:50 57.5 °F /  14.2 °C 52.4 °F /  11.3 °C 29.92 in /  1013.1 hPa West 24.0 mph /  38.6 km/h 24.0 mph /  38.6 km/h 83 % 0.00 in /  0 mm 146 W/m2
11:55 57.4 °F /  14.1 °C 52.3 °F /  11.3 °C 29.93 in /  1013.4 hPa West 23.0 mph /  37 km/h 28.0 mph /  45.1 km/h 83 % 0.00 in /  0 mm 176 W/m2
12:05 57.4 °F /  14.1 °C 52.6 °F /  11.4 °C 29.94 in /  1013.8 hPa WNW 18.0 mph /  29 km/h 21.0 mph /  33.8 km/h 84 % 0.00 in /  0 mm 186 W/m2
12:10 57.4 °F /  14.1 °C 52.9 °F /  11.6 °C 29.94 in /  1013.8 hPa West 19.0 mph /  30.6 km/h 19.0 mph /  30.6 km/h 85 % 0.00 in /  0 mm 171 W/m2
12:15 57.2 °F /  14 °C 52.7 °F /  11.5 °C 29.94 in /  1013.8 hPa West 19.0 mph /  30.6 km/h 22.0 mph /  35.4 km/h 85 % 0.00 in /  0 mm 156 W/m2
12:20 57.2 °F /  14 °C 52.7 °F /  11.5 °C 29.94 in /  1013.8 hPa WNW 18.0 mph /  29 km/h 21.0 mph /  33.8 km/h 85 % 0.00 in /  0 mm 111 W/m2
12:25 57.0 °F /  13.9 °C 52.5 °F /  11.4 °C 29.94 in /  1013.8 hPa West 17.0 mph /  27.4 km/h 21.0 mph /  33.8 km/h 85 % 0.00 in /  0 mm 130 W/m2
12:30 56.8 °F /  13.8 °C 52.7 °F /  11.5 °C 29.94 in /  1013.8 hPa West 17.0 mph /  27.4 km/h 17.0 mph /  27.4 km/h 86 % 0.00 in /  0 mm 104 W/m2
12:35 56.5 °F /  13.6 °C 52.7 °F /  11.5 °C 29.94 in /  1013.8 hPa West 15.0 mph /  24.1 km/h 17.0 mph /  27.4 km/h 87 % 0.00 in /  0 mm 86 W/m2
12:40 56.3 °F /  13.5 °C 52.5 °F /  11.4 °C 29.94 in /  1013.8 hPa West 13.0 mph /  20.9 km/h 13.0 mph /  20.9 km/h 87 % 0.00 in /  0 mm 139 W/m2
12:45 56.2 °F /  13.4 °C 52.7 °F /  11.5 °C 29.94 in /  1013.8 hPa NW 13.0 mph /  20.9 km/h 13.0 mph /  20.9 km/h 88 % 0.00 in /  0 mm 148 W/m2
12:55 56.2 °F /  13.4 °C 52.4 °F /  11.3 °C 29.94 in /  1013.8 hPa WNW 12.0 mph /  19.3 km/h 13.0 mph /  20.9 km/h 87 % 0.00 in /  0 mm 100 W/m2
13:05 56.0 °F /  13.3 °C 52.2 °F /  11.2 °C 29.94 in /  1013.8 hPa West 12.0 mph /  19.3 km/h 15.0 mph /  24.1 km/h 87 % 0.00 in /  0 mm 69 W/m2
13:10 55.8 °F /  13.2 °C 52.3 °F /  11.3 °C 29.94 in /  1013.8 hPa West 13.0 mph /  20.9 km/h 18.0 mph /  29 km/h 88 % 0.00 in /  0 mm 60 W/m2
13:15 55.6 °F /  13.1 °C 52.1 °F /  11.2 °C 29.94 in /  1013.8 hPa WNW 12.0 mph /  19.3 km/h 18.0 mph /  29 km/h 88 % 0.00 in /  0 mm 51 W/m2
13:20 55.4 °F /  13 °C 51.9 °F /  11.1 °C 29.93 in /  1013.4 hPa WNW 12.0 mph /  19.3 km/h 15.0 mph /  24.1 km/h 88 % 0.00 in /  0 mm 51 W/m2
13:30 55.4 °F /  13 °C 51.9 °F /  11.1 °C 29.93 in /  1013.4 hPa WSW 14.0 mph /  22.5 km/h 14.0 mph /  22.5 km/h 88 % 0.00 in /  0 mm 58 W/m2
13:35 55.3 °F /  12.9 °C 51.8 °F /  11 °C 29.93 in /  1013.4 hPa WSW 13.0 mph /  20.9 km/h 14.0 mph /  22.5 km/h 88 % 0.00 in /  0 mm 62 W/m2
13:45 55.3 °F /  12.9 °C 51.8 °F /  11 °C 29.93 in /  1013.4 hPa WSW 14.0 mph /  22.5 km/h 15.0 mph /  24.1 km/h 88 % 0.00 in /  0 mm 111 W/m2
13:50 55.4 °F /  13 °C 51.9 °F /  11.1 °C 29.93 in /  1013.4 hPa WNW 13.0 mph /  20.9 km/h 13.0 mph /  20.9 km/h 88 % 0.00 in /  0 mm 105 W/m2
13:55 55.5 °F /  13.1 °C 52.0 °F /  11.1 °C 29.93 in /  1013.4 hPa West 10.0 mph /  16.1 km/h 13.0 mph /  20.9 km/h 88 % 0.00 in /  0 mm 90 W/m2
14:00 55.4 °F /  13 °C 51.9 °F /  11.1 °C 29.93 in /  1013.4 hPa WSW 11.0 mph /  17.7 km/h 13.0 mph /  20.9 km/h 88 % 0.00 in /  0 mm 91 W/m2
14:10 55.2 °F /  12.9 °C 51.7 °F /  10.9 °C 29.93 in /  1013.4 hPa West 15.0 mph /  24.1 km/h 18.0 mph /  29 km/h 88 % 0.00 in /  0 mm 114 W/m2
14:15 55.1 °F /  12.8 °C 51.6 °F /  10.9 °C 29.93 in /  1013.4 hPa WSW 15.0 mph /  24.1 km/h 18.0 mph /  29 km/h 88 % 0.00 in /  0 mm 144 W/m2
14:20 55.2 °F /  12.9 °C 52.0 °F /  11.1 °C 29.93 in /  1013.4 hPa WNW 15.0 mph /  24.1 km/h 15.0 mph /  24.1 km/h 89 % 0.00 in /  0 mm 190 W/m2
14:25 55.2 °F /  12.9 °C 52.0 °F /  11.1 °C 29.93 in /  1013.4 hPa West 14.0 mph /  22.5 km/h 15.0 mph /  24.1 km/h 89 % 0.00 in /  0 mm 209 W/m2
14:30 55.3 °F /  12.9 °C 52.4 °F /  11.3 °C 29.93 in /  1013.4 hPa West 13.0 mph /  20.9 km/h 13.0 mph /  20.9 km/h 90 % 0.00 in /  0 mm 221 W/m2
14:35 55.5 °F /  13.1 °C 52.6 °F /  11.4 °C 29.93 in /  1013.4 hPa West 10.0 mph /  16.1 km/h 13.0 mph /  20.9 km/h 90 % 0.00 in /  0 mm 264 W/m2
14:40 55.9 °F /  13.3 °C 52.7 °F /  11.5 °C 29.93 in /  1013.4 hPa WSW 8.0 mph /  12.9 km/h 14.0 mph /  22.5 km/h 89 % 0.00 in /  0 mm 148 W/m2
14:45 55.9 °F /  13.3 °C 52.1 °F /  11.2 °C 29.93 in /  1013.4 hPa West 9.0 mph /  14.5 km/h 14.0 mph /  22.5 km/h 87 % 0.00 in /  0 mm 93 W/m2
14:55 55.8 °F /  13.2 °C 51.7 °F /  10.9 °C 29.93 in /  1013.4 hPa WNW 10.0 mph /  16.1 km/h 11.0 mph /  17.7 km/h 86 % 0.00 in /  0 mm 178 W/m2
15:00 56.0 °F /  13.3 °C 51.9 °F /  11.1 °C 29.93 in /  1013.4 hPa West 12.0 mph /  19.3 km/h 12.0 mph /  19.3 km/h 86 % 0.00 in /  0 mm 216 W/m2
15:05 56.1 °F /  13.4 °C 51.7 °F /  10.9 °C 29.93 in /  1013.4 hPa West 14.0 mph /  22.5 km/h 19.0 mph /  30.6 km/h 85 % 0.00 in /  0 mm 218 W/m2
15:10 56.3 °F /  13.5 °C 51.8 °F /  11 °C 29.93 in /  1013.4 hPa WNW 15.0 mph /  24.1 km/h 15.0 mph /  24.1 km/h 85 % 0.00 in /  0 mm 302 W/m2
15:15 56.4 °F /  13.6 °C 51.9 °F /  11.1 °C 29.93 in /  1013.4 hPa West 13.0 mph /  20.9 km/h 15.0 mph /  24.1 km/h 85 % 0.00 in /  0 mm 223 W/m2
15:20 56.3 °F /  13.5 °C 51.5 °F /  10.8 °C 29.93 in /  1013.4 hPa West 12.0 mph /  19.3 km/h 12.0 mph /  19.3 km/h 84 % 0.00 in /  0 mm 91 W/m2
15:25 56.1 °F /  13.4 °C 51.3 °F /  10.7 °C 29.93 in /  1013.4 hPa West 12.0 mph /  19.3 km/h 12.0 mph /  19.3 km/h 84 % 0.00 in /  0 mm 88 W/m2
15:30 55.9 °F /  13.3 °C 51.1 °F /  10.6 °C 29.93 in /  1013.4 hPa NW 12.0 mph /  19.3 km/h 12.0 mph /  19.3 km/h 84 % 0.00 in /  0 mm 62 W/m2
15:35 55.6 °F /  13.1 °C 51.2 °F /  10.7 °C 29.93 in /  1013.4 hPa WNW 14.0 mph /  22.5 km/h 15.0 mph /  24.1 km/h 85 % 0.00 in /  0 mm 62 W/m2
15:45 55.0 °F /  12.8 °C 50.9 °F /  10.5 °C 29.93 in /  1013.4 hPa West 15.0 mph /  24.1 km/h 16.0 mph /  25.7 km/h 86 % 0.00 in /  0 mm 58 W/m2
15:50 54.8 °F /  12.7 °C 51.0 °F /  10.6 °C 29.93 in /  1013.4 hPa West 15.0 mph /  24.1 km/h 15.0 mph /  24.1 km/h 87 % 0.00 in /  0 mm 81 W/m2
16:00 54.6 °F /  12.6 °C 50.8 °F /  10.4 °C 29.92 in /  1013.1 hPa West 13.0 mph /  20.9 km/h 13.0 mph /  20.9 km/h 87 % 0.00 in /  0 mm 62 W/m2
16:05 54.6 °F /  12.6 °C 50.8 °F /  10.4 °C 29.93 in /  1013.4 hPa West 13.0 mph /  20.9 km/h 13.0 mph /  20.9 km/h 87 % 0.00 in /  0 mm 53 W/m2
16:10 54.7 °F /  12.6 °C 50.9 °F /  10.5 °C 29.93 in /  1013.4 hPa West 12.0 mph /  19.3 km/h 12.0 mph /  19.3 km/h 87 % 0.00 in /  0 mm 44 W/m2
16:15 54.7 °F /  12.6 °C 50.6 °F /  10.3 °C 29.93 in /  1013.4 hPa WNW 11.0 mph /  17.7 km/h 12.0 mph /  19.3 km/h 86 % 0.00 in /  0 mm 28 W/m2
16:25 54.5 °F /  12.5 °C 50.4 °F /  10.2 °C 29.94 in /  1013.8 hPa WNW 13.0 mph /  20.9 km/h 15.0 mph /  24.1 km/h 86 % 0.00 in /  0 mm 19 W/m2
16:30 54.4 °F /  12.4 °C 50.6 °F /  10.3 °C 29.94 in /  1013.8 hPa WNW 12.0 mph /  19.3 km/h 18.0 mph /  29 km/h 87 % 0.00 in /  0 mm 23 W/m2
16:35 54.1 °F /  12.3 °C 50.9 °F /  10.5 °C 29.94 in /  1013.8 hPa West 12.0 mph /  19.3 km/h 18.0 mph /  29 km/h 89 % 0.00 in /  0 mm 26 W/m2
16:40 53.8 °F /  12.1 °C 50.6 °F /  10.3 °C 29.94 in /  1013.8 hPa West 11.0 mph /  17.7 km/h 12.0 mph /  19.3 km/h 89 % 0.00 in /  0 mm 26 W/m2
16:45 53.5 °F /  11.9 °C 50.6 °F /  10.3 °C 29.93 in /  1013.4 hPa West 11.0 mph /  17.7 km/h 12.0 mph /  19.3 km/h 90 % 0.00 in /  0 mm 30 W/m2
16:55 53.3 °F /  11.8 °C 50.1 °F /  10.1 °C 29.94 in /  1013.8 hPa WNW 12.0 mph /  19.3 km/h 13.0 mph /  20.9 km/h 89 % 0.00 in /  0 mm 26 W/m2
17:00 53.3 °F /  11.8 °C 50.1 °F /  10.1 °C 29.94 in /  1013.8 hPa WNW 11.0 mph /  17.7 km/h 12.0 mph /  19.3 km/h 89 % 0.00 in /  0 mm 18 W/m2
17:05 53.2 °F /  11.8 °C 50.0 °F /  10 °C 29.94 in /  1013.8 hPa WNW 11.0 mph /  17.7 km/h 13.0 mph /  20.9 km/h 89 % 0.00 in /  0 mm 12 W/m2
17:10 53.1 °F /  11.7 °C 50.2 °F /  10.1 °C 29.95 in /  1014.1 hPa WNW 11.0 mph /  17.7 km/h 11.0 mph /  17.7 km/h 90 % 0.00 in /  0 mm 7 W/m2
17:15 53.0 °F /  11.7 °C 50.1 °F /  10.1 °C 29.95 in /  1014.1 hPa WNW 12.0 mph /  19.3 km/h 12.0 mph /  19.3 km/h 90 % 0.00 in /  0 mm 5 W/m2
17:25 52.7 °F /  11.5 °C 49.8 °F /  9.9 °C 29.95 in /  1014.1 hPa West 11.0 mph /  17.7 km/h 12.0 mph /  19.3 km/h 90 % 0.00 in /  0 mm 0 W/m2
17:30 52.6 °F /  11.4 °C 49.8 °F /  9.9 °C 29.95 in /  1014.1 hPa West 11.0 mph /  17.7 km/h 21.0 mph /  33.8 km/h 90 % 0.00 in /  0 mm 0 W/m2
17:35 52.5 °F /  11.4 °C 49.7 °F /  9.8 °C 29.95 in /  1014.1 hPa West 11.0 mph /  17.7 km/h 21.0 mph /  33.8 km/h 90 % 0.00 in /  0 mm 0 W/m2
17:40 52.5 °F /  11.4 °C 49.7 °F /  9.8 °C 29.95 in /  1014.1 hPa NW 10.0 mph /  16.1 km/h 10.0 mph /  16.1 km/h 90 % 0.00 in /  0 mm 0 W/m2
17:45 52.4 °F /  11.3 °C 49.6 °F /  9.8 °C 29.95 in /  1014.1 hPa NW 9.0 mph /  14.5 km/h 11.0 mph /  17.7 km/h 90 % 0.00 in /  0 mm 0 W/m2
17:50 52.4 °F /  11.3 °C 49.6 °F /  9.8 °C 29.96 in /  1014.4 hPa WNW 10.0 mph /  16.1 km/h 13.0 mph /  20.9 km/h 90 % 0.00 in /  0 mm 0 W/m2
17:55 52.3 °F /  11.3 °C 49.5 °F /  9.7 °C 29.96 in /  1014.4 hPa WNW 9.0 mph /  14.5 km/h 13.0 mph /  20.9 km/h 90 % 0.00 in /  0 mm 0 W/m2
18:00 52.3 °F /  11.3 °C 49.5 °F /  9.7 °C 29.95 in /  1014.1 hPa WNW 8.0 mph /  12.9 km/h 11.0 mph /  17.7 km/h 90 % 0.00 in /  0 mm 0 W/m2
18:05 52.2 °F /  11.2 °C 49.1 °F /  9.5 °C 29.96 in /  1014.4 hPa WNW 8.0 mph /  12.9 km/h 11.0 mph /  17.7 km/h 89 % 0.00 in /  0 mm 0 W/m2
18:15 52.0 °F /  11.1 °C 48.9 °F /  9.4 °C 29.97 in /  1014.8 hPa West 6.0 mph /  9.7 km/h 11.0 mph /  17.7 km/h 89 % 0.00 in /  0 mm 0 W/m2
18:20 52.0 °F /  11.1 °C 48.9 °F /  9.4 °C 29.97 in /  1014.8 hPa NW 5.0 mph /  8 km/h 11.0 mph /  17.7 km/h 89 % 0.00 in /  0 mm 0 W/m2
18:25 51.9 °F /  11.1 °C 48.8 °F /  9.3 °C 29.97 in /  1014.8 hPa WNW 5.0 mph /  8 km/h 11.0 mph /  17.7 km/h 89 % 0.00 in /  0 mm 0 W/m2
18:30 51.8 °F /  11 °C 48.7 °F /  9.3 °C 29.97 in /  1014.8 hPa WNW 6.0 mph /  9.7 km/h 11.0 mph /  17.7 km/h 89 % 0.00 in /  0 mm 0 W/m2
18:40 51.6 °F /  10.9 °C 48.5 °F /  9.2 °C 29.97 in /  1014.8 hPa West 7.0 mph /  11.3 km/h 7.0 mph /  11.3 km/h 89 % 0.00 in /  0 mm 0 W/m2
18:45 51.5 °F /  10.8 °C 48.4 °F /  9.1 °C 29.97 in /  1014.8 hPa WNW 6.0 mph /  9.7 km/h 11.0 mph /  17.7 km/h 89 % 0.00 in /  0 mm 0 W/m2
18:50 51.3 °F /  10.7 °C 47.9 °F /  8.8 °C 29.97 in /  1014.8 hPa WNW 7.0 mph /  11.3 km/h 7.0 mph /  11.3 km/h 88 % 0.00 in /  0 mm 0 W/m2
19:00 51.1 °F /  10.6 °C 47.7 °F /  8.7 °C 29.97 in /  1014.8 hPa West 8.0 mph /  12.9 km/h 8.0 mph /  12.9 km/h 88 % 0.00 in /  0 mm 0 W/m2
19:05 51.0 °F /  10.6 °C 47.6 °F /  8.7 °C 29.97 in /  1014.8 hPa NW 8.0 mph /  12.9 km/h 11.0 mph /  17.7 km/h 88 % 0.00 in /  0 mm 0 W/m2
19:10 50.9 °F /  10.5 °C 47.2 °F /  8.4 °C 29.97 in /  1014.8 hPa WNW 8.0 mph /  12.9 km/h 8.0 mph /  12.9 km/h 87 % 0.00 in /  0 mm 0 W/m2
19:15 50.8 °F /  10.4 °C 47.1 °F /  8.4 °C 29.96 in /  1014.4 hPa WNW 8.0 mph /  12.9 km/h 10.0 mph /  16.1 km/h 87 % 0.00 in /  0 mm 0 W/m2
19:20 50.6 °F /  10.3 °C 46.9 °F /  8.3 °C 29.97 in /  1014.8 hPa WNW 7.0 mph /  11.3 km/h 11.0 mph /  17.7 km/h 87 % 0.00 in /  0 mm 0 W/m2
19:25 50.5 °F /  10.3 °C 46.8 °F /  8.2 °C 29.97 in /  1014.8 hPa WNW 6.0 mph /  9.7 km/h 11.0 mph /  17.7 km/h 87 % 0.00 in /  0 mm 0 W/m2
19:30 50.4 °F /  10.2 °C 46.7 °F /  8.2 °C 29.97 in /  1014.8 hPa West 6.0 mph /  9.7 km/h 6.0 mph /  9.7 km/h 87 % 0.00 in /  0 mm 0 W/m2
19:40 50.3 °F /  10.2 °C 46.6 °F /  8.1 °C 29.97 in /  1014.8 hPa WNW 7.0 mph /  11.3 km/h 11.0 mph /  17.7 km/h 87 % 0.00 in /  0 mm 0 W/m2
19:50 50.2 °F /  10.1 °C 46.5 °F /  8.1 °C 29.97 in /  1014.8 hPa West 7.0 mph /  11.3 km/h 11.0 mph /  17.7 km/h 87 % 0.00 in /  0 mm 0 W/m2
19:55 50.1 °F /  10.1 °C 46.1 °F /  7.8 °C 29.97 in /  1014.8 hPa WNW 7.0 mph /  11.3 km/h 11.0 mph /  17.7 km/h 86 % 0.00 in /  0 mm 0 W/m2
20:00 50.0 °F /  10 °C 46.0 °F /  7.8 °C 29.97 in /  1014.8 hPa WNW 7.0 mph /  11.3 km/h 7.0 mph /  11.3 km/h 86 % 0.00 in /  0 mm 0 W/m2
20:05 50.0 °F /  10 °C 46.3 °F /  7.9 °C 29.98 in /  1015.1 hPa WNW 7.0 mph /  11.3 km/h 11.0 mph /  17.7 km/h 87 % 0.00 in /  0 mm 0 W/m2
20:10 50.0 °F /  10 °C 46.3 °F /  7.9 °C 29.98 in /  1015.1 hPa West 8.0 mph /  12.9 km/h 11.0 mph /  17.7 km/h 87 % 0.00 in /  0 mm 0 W/m2
20:15 49.9 °F /  9.9 °C 46.2 °F /  7.9 °C 29.97 in /  1014.8 hPa WNW 8.0 mph /  12.9 km/h 11.0 mph /  17.7 km/h 87 % 0.00 in /  0 mm 0 W/m2
20:20 49.9 °F /  9.9 °C 46.2 °F /  7.9 °C 29.97 in /  1014.8 hPa West 6.0 mph /  9.7 km/h 6.0 mph /  9.7 km/h 87 % 0.00 in /  0 mm 0 W/m2
20:25 49.8 °F /  9.9 °C 46.1 °F /  7.8 °C 29.98 in /  1015.1 hPa NW 5.0 mph /  8 km/h 12.0 mph /  19.3 km/h 87 % 0.00 in /  0 mm 0 W/m2
20:35 49.8 °F /  9.9 °C 46.1 °F /  7.8 °C 29.98 in /  1015.1 hPa West 8.0 mph /  12.9 km/h 11.0 mph /  17.7 km/h 87 % 0.00 in /  0 mm 0 W/m2
20:40 49.8 °F /  9.9 °C 46.1 °F /  7.8 °C 29.98 in /  1015.1 hPa WNW 8.0 mph /  12.9 km/h 11.0 mph /  17.7 km/h 87 % 0.00 in /  0 mm 0 W/m2
20:45 49.8 °F /  9.9 °C 46.1 °F /  7.8 °C 29.97 in /  1014.8 hPa West 8.0 mph /  12.9 km/h 11.0 mph /  17.7 km/h 87 % 0.00 in /  0 mm 0 W/m2
20:55 49.7 °F /  9.8 °C 46.0 °F /  7.8 °C 29.97 in /  1014.8 hPa West 9.0 mph /  14.5 km/h 10.0 mph /  16.1 km/h 87 % 0.00 in /  0 mm 0 W/m2
21:00 49.7 °F /  9.8 °C 46.0 °F /  7.8 °C 29.96 in /  1014.4 hPa West 9.0 mph /  14.5 km/h 11.0 mph /  17.7 km/h 87 % 0.00 in /  0 mm 0 W/m2
21:05 49.7 °F /  9.8 °C 46.3 °F /  7.9 °C 29.97 in /  1014.8 hPa West 9.0 mph /  14.5 km/h 11.0 mph /  17.7 km/h 88 % 0.00 in /  0 mm 0 W/m2
21:10 49.7 °F /  9.8 °C 46.3 °F /  7.9 °C 29.96 in /  1014.4 hPa West 10.0 mph /  16.1 km/h 10.0 mph /  16.1 km/h 88 % 0.00 in /  0 mm 0 W/m2
21:20 49.5 °F /  9.7 °C 46.1 °F /  7.8 °C 29.97 in /  1014.8 hPa WNW 7.0 mph /  11.3 km/h 11.0 mph /  17.7 km/h 88 % 0.00 in /  0 mm 0 W/m2
21:25 49.4 °F /  9.7 °C 46.0 °F /  7.8 °C 29.96 in /  1014.4 hPa WNW 8.0 mph /  12.9 km/h 11.0 mph /  17.7 km/h 88 % 0.00 in /  0 mm 0 W/m2
21:30 49.4 °F /  9.7 °C 46.0 °F /  7.8 °C 29.97 in /  1014.8 hPa WNW 8.0 mph /  12.9 km/h 8.0 mph /  12.9 km/h 88 % 0.00 in /  0 mm 0 W/m2
21:35 49.3 °F /  9.6 °C 45.9 °F /  7.7 °C 29.97 in /  1014.8 hPa WSW 8.0 mph /  12.9 km/h 10.0 mph /  16.1 km/h 88 % 0.00 in /  0 mm 0 W/m2
21:40 49.2 °F /  9.6 °C 45.8 °F /  7.7 °C 29.97 in /  1014.8 hPa WNW 7.0 mph /  11.3 km/h 11.0 mph /  17.7 km/h 88 % 0.00 in /  0 mm 0 W/m2
21:45 49.2 °F /  9.6 °C 45.8 °F /  7.7 °C 29.97 in /  1014.8 hPa WNW 9.0 mph /  14.5 km/h 11.0 mph /  17.7 km/h 88 % 0.00 in /  0 mm 0 W/m2
21:50 49.2 °F /  9.6 °C 45.8 °F /  7.7 °C 29.97 in /  1014.8 hPa West 10.0 mph /  16.1 km/h 11.0 mph /  17.7 km/h 88 % 0.00 in /  0 mm 0 W/m2
22:00 49.3 °F /  9.6 °C 45.6 °F /  7.6 °C 29.97 in /  1014.8 hPa WNW 10.0 mph /  16.1 km/h 10.0 mph /  16.1 km/h 87 % 0.00 in /  0 mm 0 W/m2
22:10 49.4 °F /  9.7 °C 45.7 °F /  7.6 °C 29.96 in /  1014.4 hPa WSW 9.0 mph /  14.5 km/h 11.0 mph /  17.7 km/h 87 % 0.00 in /  0 mm 0 W/m2
22:15 49.4 °F /  9.7 °C 45.7 °F /  7.6 °C 29.96 in /  1014.4 hPa West 9.0 mph /  14.5 km/h 11.0 mph /  17.7 km/h 87 % 0.00 in /  0 mm 0 W/m2
22:20 49.3 °F /  9.6 °C 45.3 °F /  7.4 °C 29.96 in /  1014.4 hPa WSW 9.0 mph /  14.5 km/h 15.0 mph /  24.1 km/h 86 % 0.00 in /  0 mm 0 W/m2
22:25 49.2 °F /  9.6 °C 45.2 °F /  7.3 °C 29.97 in /  1014.8 hPa West 10.0 mph /  16.1 km/h 15.0 mph /  24.1 km/h 86 % 0.00 in /  0 mm 0 W/m2
22:30 49.2 °F /  9.6 °C 45.2 °F /  7.3 °C 29.97 in /  1014.8 hPa West 12.0 mph /  19.3 km/h 12.0 mph /  19.3 km/h 86 % 0.00 in /  0 mm 0 W/m2
22:35 49.2 °F /  9.6 °C 45.2 °F /  7.3 °C 29.96 in /  1014.4 hPa West 10.0 mph /  16.1 km/h 12.0 mph /  19.3 km/h 86 % 0.00 in /  0 mm 0 W/m2
22:40 49.2 °F /  9.6 °C 45.2 °F /  7.3 °C 29.96 in /  1014.4 hPa WSW 9.0 mph /  14.5 km/h 9.0 mph /  14.5 km/h 86 % 0.00 in /  0 mm 0 W/m2
22:50 49.2 °F /  9.6 °C 45.5 °F /  7.5 °C 29.96 in /  1014.4 hPa WNW 8.0 mph /  12.9 km/h 11.0 mph /  17.7 km/h 87 % 0.00 in /  0 mm 0 W/m2
22:55 49.1 °F /  9.5 °C 45.4 °F /  7.4 °C 29.97 in /  1014.8 hPa WSW 9.0 mph /  14.5 km/h 12.0 mph /  19.3 km/h 87 % 0.00 in /  0 mm 0 W/m2
23:00 49.2 °F /  9.6 °C 45.2 °F /  7.3 °C 29.97 in /  1014.8 hPa West 10.0 mph /  16.1 km/h 10.0 mph /  16.1 km/h 86 % 0.00 in /  0 mm 0 W/m2
23:05 49.2 °F /  9.6 °C 44.9 °F /  7.2 °C 29.97 in /  1014.8 hPa West 10.0 mph /  16.1 km/h 11.0 mph /  17.7 km/h 85 % 0.00 in /  0 mm 0 W/m2
23:10 49.1 °F /  9.5 °C 44.8 °F /  7.1 °C 29.97 in /  1014.8 hPa West 10.0 mph /  16.1 km/h 13.0 mph /  20.9 km/h 85 % 0.00 in /  0 mm 0 W/m2
23:15 48.9 °F /  9.4 °C 44.6 °F /  7 °C 29.96 in /  1014.4 hPa West 11.0 mph /  17.7 km/h 13.0 mph /  20.9 km/h 85 % 0.00 in /  0 mm 0 W/m2
23:20 48.8 °F /  9.3 °C 44.5 °F /  6.9 °C 29.96 in /  1014.4 hPa West 10.0 mph /  16.1 km/h 10.0 mph /  16.1 km/h 85 % 0.00 in /  0 mm 0 W/m2
23:25 48.7 °F /  9.3 °C 44.4 °F /  6.9 °C 29.96 in /  1014.4 hPa West 8.0 mph /  12.9 km/h 11.0 mph /  17.7 km/h 85 % 0.00 in /  0 mm 0 W/m2
23:35 48.4 °F /  9.1 °C 44.1 °F /  6.7 °C 29.97 in /  1014.8 hPa West 9.0 mph /  14.5 km/h 11.0 mph /  17.7 km/h 85 % 0.00 in /  0 mm 0 W/m2
23:40 48.2 °F /  9 °C 43.9 °F /  6.6 °C 29.97 in /  1014.8 hPa West 8.0 mph /  12.9 km/h 8.0 mph /  12.9 km/h 85 % 0.00 in /  0 mm 0 W/m2
23:45 48.0 °F /  8.9 °C 43.7 °F /  6.5 °C 29.97 in /  1014.8 hPa WNW 8.0 mph /  12.9 km/h 11.0 mph /  17.7 km/h 85 % 0.00 in /  0 mm 0 W/m2
23:50 47.8 °F /  8.8 °C 43.5 °F /  6.4 °C 29.97 in /  1014.8 hPa West 8.0 mph /  12.9 km/h 8.0 mph /  12.9 km/h 85 % 0.00 in /  0 mm 0 W/m2
23:55 47.6 °F /  8.7 °C 43.3 °F /  6.3 °C 29.97 in /  1014.8 hPa WSW 8.0 mph /  12.9 km/h 10.0 mph /  16.1 km/h 85 % 0.00 in /  0 mm 0 W/m2
Delerius-Weather
Compliments of Weather Underground - 2 mb

Data updates at regular intervals.